Time;durP1;ratioP1;P1;durP2;ratioP2;P2;SDS_P1;SDS_P2;PMS_P1;PMS_P2;Temp;Humidity;BMP_temperature;BMP_pressure;BME280_temperature;BME280_humidity;BME280_pressure;Samples;Min_cycle;Max_cycle;Signal;HPM_P1;HPM_P2
2023/07/17 00:01:40;;;;;;;6.10;5.50;;;20.50;99.90;;;;;;5063060;28;20188;-47
2023/07/17 00:04:05;;;;;;;5.53;4.80;;;20.50;99.90;;;;;;5062593;28;20161;-43
2023/07/17 00:06:31;;;;;;;4.93;4.37;;;20.50;99.90;;;;;;5062614;28;20204;-44
2023/07/17 00:08:59;;;;;;;6.87;4.73;;;20.60;99.90;;;;;;5062461;28;20169;-44
2023/07/17 00:11:25;;;;;;;6.17;5.20;;;20.60;99.90;;;;;;5062284;28;20175;-47
2023/07/17 00:13:51;;;;;;;7.03;4.73;;;20.60;99.90;;;;;;5062478;28;20169;-45
2023/07/17 00:16:16;;;;;;;6.20;5.37;;;20.60;99.90;;;;;;5061478;28;20569;-43
2023/07/17 00:18:42;;;;;;;8.43;6.50;;;20.60;99.90;;;;;;5061772;28;20184;-44
2023/07/17 00:21:09;;;;;;;10.93;7.27;;;20.60;99.90;;;;;;5079051;28;20200;-43
2023/07/17 00:23:34;;;;;;;8.90;7.97;;;20.60;99.90;;;;;;5060106;28;20165;-43
2023/07/17 00:26:13;;;;;;;9.43;8.63;;;20.70;99.90;;;;;;5061234;28;20195;-47
2023/07/17 00:28:38;;;;;;;11.10;10.30;;;20.70;99.90;;;;;;5079619;28;20433;-43
2023/07/17 00:31:04;;;;;;;14.00;12.93;;;20.70;99.90;;;;;;5079580;28;20303;-45
2023/07/17 00:33:29;;;;;;;14.60;13.57;;;20.70;99.90;;;;;;5079384;28;20267;-47
2023/07/17 00:35:55;;;;;;;13.50;12.60;;;20.70;99.90;;;;;;5062136;28;20175;-43
2023/07/17 00:38:21;;;;;;;11.67;10.83;;;20.70;99.90;;;;;;5061136;28;20173;-43
2023/07/17 00:40:46;;;;;;;12.67;11.87;;;20.70;99.90;;;;;;5061524;28;20177;-43
2023/07/17 00:43:12;;;;;;;14.20;13.27;;;20.70;99.90;;;;;;5061504;28;20173;-48
2023/07/17 00:45:41;;;;;;;15.63;14.53;;;20.70;99.90;;;;;;5060871;28;20268;-43
2023/07/17 00:48:08;;;;;;;17.97;16.77;;;20.60;99.90;;;;;;5061208;28;20177;-43
2023/07/17 00:50:34;;;;;;;18.33;16.97;;;20.60;99.90;;;;;;5061330;28;20192;-43
2023/07/17 00:53:00;;;;;;;17.27;16.17;;;20.60;99.90;;;;;;5077995;28;20234;-45
2023/07/17 00:55:26;;;;;;;16.50;15.40;;;20.60;99.90;;;;;;5078272;28;20169;-44
2023/07/17 00:57:52;;;;;;;16.57;15.57;;;20.60;99.90;;;;;;5078327;28;20177;-44
2023/07/17 01:00:23;;;;;;;17.07;15.87;;;20.60;99.90;;;;;;5060646;28;20443;-45
2023/07/17 01:02:51;;;;;;;18.50;17.17;;;20.60;99.90;;;;;;5078842;28;20215;-43
2023/07/17 01:05:16;;;;;;;18.93;17.73;;;20.60;99.90;;;;;;5061173;28;20176;-44
2023/07/17 01:07:42;;;;;;;18.40;17.07;;;20.60;99.90;;;;;;5061307;28;20175;-44
2023/07/17 01:10:27;;;;;;;15.60;14.50;;;20.60;99.90;;;;;;5061031;28;20172;-48
2023/07/17 01:12:52;;;;;;;14.10;13.23;;;20.60;99.90;;;;;;5079146;28;20171;-44
2023/07/17 01:15:18;;;;;;;11.83;10.93;;;20.60;99.90;;;;;;5061767;28;20271;-44
2023/07/17 01:17:44;;;;;;;9.80;9.00;;;20.60;99.90;;;;;;5061211;28;20177;-46
2023/07/17 01:20:10;;;;;;;7.60;6.80;;;20.70;99.90;;;;;;5078277;28;20176;-47
2023/07/17 01:23:04;;;;;;;8.90;8.00;;;20.70;99.90;;;;;;5061267;28;20208;-46
2023/07/17 01:25:30;;;;;;;8.17;7.13;;;20.60;99.90;;;;;;5061137;28;20192;-46
2023/07/17 01:27:56;;;;;;;6.33;5.77;;;20.60;99.90;;;;;;5061485;28;20611;-44
2023/07/17 01:30:22;;;;;;;4.73;4.37;;;20.60;99.90;;;;;;5061219;28;20544;-44
2023/07/17 01:32:47;;;;;;;28.47;26.60;;;20.60;99.90;;;;;;5061615;28;20192;-43
2023/07/17 01:35:13;;;;;;;14.57;13.27;;;20.60;99.90;;;;;;5060454;28;20793;-46
2023/07/17 01:37:38;;;;;;;11.77;10.90;;;20.50;99.90;;;;;;5061383;28;20172;-44
2023/07/17 01:40:07;;;;;;;9.47;8.77;;;20.50;99.90;;;;;;5061085;28;20175;-44
2023/07/17 01:42:33;;;;;;;8.63;7.73;;;20.50;99.90;;;;;;5060817;28;20207;-44
2023/07/17 01:45:07;;;;;;;7.23;6.60;;;20.50;99.90;;;;;;5077976;28;20168;-44
2023/07/17 01:47:33;;;;;;;5.17;4.73;;;20.50;99.90;;;;;;5061145;28;20176;-46
2023/07/17 01:49:59;;;;;;;6.10;5.23;;;20.50;99.90;;;;;;5061026;28;20172;-44
2023/07/17 01:52:24;;;;;;;6.97;6.47;;;20.50;99.90;;;;;;5060810;28;20173;-44
2023/07/17 01:54:50;;;;;;;10.00;9.13;;;20.40;99.90;;;;;;5060726;28;20184;-45
2023/07/17 01:57:15;;;;;;;8.07;7.47;;;20.30;99.90;;;;;;5061265;28;20169;-46
2023/07/17 01:59:41;;;;;;;9.03;8.20;;;20.30;99.90;;;;;;5078416;28;20237;-47
2023/07/17 02:02:06;;;;;;;8.43;7.73;;;20.20;99.90;;;;;;5060511;28;20235;-48
2023/07/17 02:04:32;;;;;;;11.17;10.17;;;20.10;99.90;;;;;;5060974;28;20169;-44
2023/07/17 02:06:58;;;;;;;11.50;10.63;;;20.20;99.90;;;;;;5060936;28;20165;-44
2023/07/17 02:09:23;;;;;;;11.40;10.50;;;20.20;99.90;;;;;;5078730;28;20224;-44
2023/07/17 02:11:50;;;;;;;10.03;9.23;;;20.00;99.90;;;;;;5060583;28;20176;-44
2023/07/17 02:14:15;;;;;;;8.27;7.57;;;20.00;99.90;;;;;;5060134;28;20177;-45
2023/07/17 02:16:41;;;;;;;9.50;8.63;;;20.00;99.90;;;;;;5057610;28;20236;-44
2023/07/17 02:19:06;;;;;;;8.53;7.87;;;19.90;99.90;;;;;;5057795;28;20505;-44
2023/07/17 02:21:32;;;;;;;7.70;7.10;;;19.80;99.90;;;;;;5060755;28;20200;-45
2023/07/17 02:23:58;;;;;;;8.27;7.57;;;19.80;99.90;;;;;;5060305;28;20255;-43
2023/07/17 02:26:24;;;;;;;10.70;10.00;;;19.80;99.90;;;;;;5060911;28;20165;-46
2023/07/17 02:28:50;;;;;;;13.53;12.60;;;19.80;99.90;;;;;;5060232;28;20165;-44
2023/07/17 02:31:21;;;;;;;20.03;18.80;;;19.80;99.90;;;;;;5057023;28;20671;-45
2023/07/17 02:33:47;;;;;;;19.07;17.70;;;19.80;99.90;;;;;;5057279;28;20181;-46
2023/07/17 02:36:12;;;;;;;29.83;28.03;;;19.80;99.90;;;;;;5057019;28;20180;-45
2023/07/17 02:38:38;;;;;;;30.87;29.07;;;19.80;99.90;;;;;;5057209;28;20442;-45
2023/07/17 02:41:04;;;;;;;30.63;29.00;;;19.80;99.90;;;;;;5057960;28;20180;-47
2023/07/17 02:43:30;;;;;;;29.20;27.40;;;19.80;99.90;;;;;;5057664;28;20158;-44
2023/07/17 02:45:55;;;;;;;28.67;26.93;;;19.70;99.90;;;;;;5056419;28;20176;-45
2023/07/17 02:48:21;;;;;;;28.67;27.07;;;19.60;99.90;;;;;;5056800;28;20182;-45
2023/07/17 02:50:50;;;;;;;29.97;28.07;;;19.50;99.90;;;;;;5057013;28;20185;-44
2023/07/17 02:53:16;;;;;;;25.13;23.77;;;19.50;99.90;;;;;;5056502;28;20178;-46
2023/07/17 02:55:42;;;;;;;23.50;21.93;;;19.50;99.90;;;;;;5057073;28;20212;-45
2023/07/17 02:58:08;;;;;;;25.43;23.83;;;19.50;99.90;;;;;;5056324;28;20173;-43
2023/07/17 03:00:34;;;;;;;27.20;25.50;;;19.60;99.90;;;;;;5056460;28;20467;-44
2023/07/17 03:02:59;;;;;;;24.43;22.83;;;19.50;99.90;;;;;;5055625;28;20217;-44
2023/07/17 03:05:25;;;;;;;18.97;17.63;;;19.60;99.90;;;;;;5055403;28;20171;-44
2023/07/17 03:07:50;;;;;;;20.70;19.43;;;19.60;99.90;;;;;;5056170;28;20470;-46
2023/07/17 03:10:16;;;;;;;16.87;15.57;;;19.60;99.90;;;;;;5057362;28;20695;-43
2023/07/17 03:12:42;;;;;;;16.83;15.43;;;19.50;99.90;;;;;;5056697;28;20181;-45
2023/07/17 03:15:08;;;;;;;13.33;12.53;;;19.50;99.90;;;;;;5056494;28;20219;-44
2023/07/17 03:17:34;;;;;;;13.60;12.53;;;19.40;99.90;;;;;;5056176;28;20213;-46
2023/07/17 03:20:00;;;;;;;13.57;12.57;;;19.40;99.90;;;;;;5056150;28;20192;-46
2023/07/17 03:22:26;;;;;;;13.60;12.57;;;19.30;99.90;;;;;;5055659;28;20456;-46
2023/07/17 03:24:53;;;;;;;12.63;11.47;;;19.30;99.90;;;;;;5056193;28;20196;-44
2023/07/17 03:27:18;;;;;;;11.47;10.63;;;19.30;99.90;;;;;;5057588;28;20173;-42
2023/07/17 03:29:47;;;;;;;9.20;8.63;;;19.30;99.90;;;;;;5057045;28;20231;-43
2023/07/17 03:32:12;;;;;;;10.63;9.53;;;19.40;99.90;;;;;;5056013;28;20236;-44
2023/07/17 03:34:38;;;;;;;8.93;8.23;;;19.40;99.90;;;;;;5055701;28;20169;-43
2023/07/17 03:37:04;;;;;;;8.53;7.83;;;19.40;99.90;;;;;;5056060;28;20169;-44
2023/07/17 03:39:50;;;;;;;7.53;6.83;;;19.40;99.90;;;;;;5056181;28;20169;-48
2023/07/17 03:42:16;;;;;;;6.27;5.67;;;19.40;99.90;;;;;;5056097;28;20192;-44
2023/07/17 03:44:41;;;;;;;7.63;6.93;;;19.50;99.90;;;;;;5055736;28;20162;-44
2023/07/17 03:47:07;;;;;;;7.63;6.93;;;19.40;99.90;;;;;;5057118;28;20267;-43
2023/07/17 03:49:33;;;;;;;7.27;6.57;;;19.40;99.90;;;;;;5056748;28;20242;-47
2023/07/17 03:51:58;;;;;;;6.60;6.00;;;19.40;99.90;;;;;;5055656;28;20201;-47
2023/07/17 03:54:27;;;;;;;6.57;5.97;;;19.40;99.90;;;;;;5055770;28;20176;-44
2023/07/17 04:00:15;;;;;;;5.80;5.30;;;19.50;99.90;;;;;;5060304;28;20246;-44
2023/07/17 04:02:42;;;;;;;4.97;4.53;;;19.60;99.90;;;;;;5059204;28;20303;-44
2023/07/17 04:05:08;;;;;;;4.90;4.50;;;19.50;99.90;;;;;;5059000;28;20169;-46
2023/07/17 04:07:37;;;;;;;6.83;5.20;;;19.60;99.90;;;;;;5059647;28;20161;-44
2023/07/17 04:10:06;;;;;;;5.27;4.43;;;19.60;99.90;;;;;;5059039;28;20173;-43
2023/07/17 04:12:32;;;;;;;5.03;4.63;;;19.50;99.90;;;;;;5059629;28;20166;-43
2023/07/17 04:14:58;;;;;;;7.77;6.10;;;19.50;99.90;;;;;;5058340;28;20177;-46
2023/07/17 04:17:24;;;;;;;6.67;5.07;;;19.50;99.90;;;;;;5059734;28;20246;-44
2023/07/17 04:19:49;;;;;;;10.20;5.93;;;19.50;99.90;;;;;;5058398;28;20185;-44
2023/07/17 04:22:17;;;;;;;6.50;4.67;;;19.60;99.90;;;;;;5058273;28;20241;-44
2023/07/17 04:24:43;;;;;;;8.27;5.40;;;19.60;99.90;;;;;;5058687;28;20173;-45
2023/07/17 04:27:08;;;;;;;6.53;6.03;;;19.60;99.90;;;;;;5058806;28;20169;-45
2023/07/17 04:29:34;;;;;;;5.80;5.33;;;19.60;99.90;;;;;;5058585;28;20486;-46
2023/07/17 04:31:59;;;;;;;5.10;4.60;;;19.60;99.90;;;;;;5058838;28;20233;-53
2023/07/17 04:34:25;;;;;;;7.10;5.03;;;19.50;99.90;;;;;;5059115;28;20204;-46
2023/07/17 04:36:51;;;;;;;6.43;5.90;;;19.60;99.90;;;;;;5058325;28;20184;-45
2023/07/17 04:39:16;;;;;;;8.37;6.17;;;19.60;99.90;;;;;;5058809;28;20185;-46
2023/07/17 04:41:42;;;;;;;8.90;6.57;;;19.60;99.90;;;;;;5058349;28;20211;-46
2023/07/17 04:44:07;;;;;;;8.73;5.20;;;19.60;99.90;;;;;;5058801;28;20188;-44
2023/07/17 04:46:33;;;;;;;5.70;5.17;;;19.60;99.90;;;;;;5058134;28;20205;-44
2023/07/17 04:48:59;;;;;;;6.50;6.00;;;19.70;99.90;;;;;;5059138;28;20165;-44
2023/07/17 04:51:25;;;;;;;6.83;5.37;;;19.70;99.90;;;;;;5057225;28;20169;-47
2023/07/17 04:53:51;;;;;;;7.53;5.30;;;19.70;99.90;;;;;;5057780;28;20241;-44
2023/07/17 04:56:16;;;;;;;7.00;5.77;;;19.60;99.90;;;;;;5057281;28;20486;-46
2023/07/17 04:58:42;;;;;;;5.33;4.83;;;19.50;99.90;;;;;;5057379;28;20174;-45
2023/07/17 05:01:07;;;;;;;4.80;4.17;;;19.50;99.90;;;;;;5056152;28;20169;-43
2023/07/17 05:03:33;;;;;;;5.27;4.77;;;19.50;99.90;;;;;;5056286;28;20178;-44
2023/07/17 05:05:58;;;;;;;6.67;5.17;;;19.50;99.90;;;;;;5056020;28;20185;-45
2023/07/17 05:08:25;;;;;;;5.83;4.63;;;19.50;99.90;;;;;;5056277;28;20169;-46
2023/07/17 05:10:58;;;;;;;9.73;5.30;;;19.50;99.90;;;;;;5058492;28;20169;-43
2023/07/17 05:13:24;;;;;;;6.27;5.13;;;19.50;99.90;;;;;;5058158;28;20169;-44
2023/07/17 05:15:50;;;;;;;6.27;5.17;;;19.40;99.90;;;;;;5057459;28;20181;-44
2023/07/17 05:18:16;;;;;;;6.70;4.77;;;19.40;99.90;;;;;;5057681;28;20247;-48
2023/07/17 05:20:46;;;;;;;9.70;5.57;;;19.30;99.90;;;;;;5057393;28;20201;-44
2023/07/17 05:23:12;;;;;;;7.17;6.57;;;19.20;99.90;;;;;;5057767;28;20216;-44
2023/07/17 05:25:38;;;;;;;9.17;8.47;;;19.10;99.90;;;;;;5058780;28;20166;-46
2023/07/17 05:28:07;;;;;;;10.93;10.00;;;19.20;99.90;;;;;;5057901;28;20219;-43
2023/07/17 05:30:36;;;;;;;10.63;9.73;;;19.20;99.90;;;;;;5059600;28;20180;-44
2023/07/17 05:33:02;;;;;;;13.13;11.97;;;19.20;99.90;;;;;;5060665;28;20192;-44
2023/07/17 05:35:28;;;;;;;14.27;13.23;;;19.30;99.90;;;;;;5060422;28;20169;-45
2023/07/17 05:37:54;;;;;;;11.17;10.07;;;19.30;99.90;;;;;;5077126;28;20274;-48
2023/07/17 05:40:20;;;;;;;12.40;11.30;;;19.30;99.90;;;;;;5059560;28;20204;-47
2023/07/17 05:42:45;;;;;;;12.97;11.90;;;19.30;99.90;;;;;;5059918;28;20265;-45
2023/07/17 05:45:11;;;;;;;14.20;12.97;;;19.30;99.90;;;;;;5060029;28;20743;-43
2023/07/17 05:47:37;;;;;;;14.33;13.33;;;19.40;99.90;;;;;;5059712;28;20184;-46
2023/07/17 05:50:04;;;;;;;12.83;11.47;;;19.30;99.90;;;;;;5059094;28;20172;-44
2023/07/17 05:52:29;;;;;;;13.37;12.23;;;19.30;99.90;;;;;;5059243;28;20177;-47
2023/07/17 05:54:55;;;;;;;15.40;13.80;;;19.30;99.90;;;;;;5059398;28;20178;-44
2023/07/17 05:57:20;;;;;;;17.10;15.70;;;19.20;99.90;;;;;;5075451;28;20169;-44
2023/07/17 05:59:46;;;;;;;9.47;8.67;;;19.30;99.90;;;;;;5075089;28;20220;-43
2023/07/17 06:02:12;;;;;;;16.43;15.03;;;19.30;99.90;;;;;;5057702;28;20209;-45
2023/07/17 06:04:37;;;;;;;18.30;16.70;;;19.30;99.90;;;;;;5057666;28;20670;-44
2023/07/17 06:07:04;;;;;;;13.13;12.30;;;19.20;99.90;;;;;;5074349;28;20161;-47
2023/07/17 06:09:30;;;;;;;18.27;16.97;;;19.20;99.90;;;;;;5056714;28;20465;-45
2023/07/17 06:11:57;;;;;;;17.47;15.90;;;19.20;99.90;;;;;;5057701;28;20169;-44
2023/07/17 06:14:23;;;;;;;18.77;17.37;;;19.20;99.90;;;;;;5056958;28;20234;-46
2023/07/17 06:16:48;;;;;;;18.33;16.83;;;19.30;99.90;;;;;;5071511;28;20518;-44
2023/07/17 06:19:14;;;;;;;16.03;14.93;;;19.30;99.90;;;;;;5069019;28;20173;-45
2023/07/17 06:21:39;;;;;;;13.03;11.77;;;19.30;99.90;;;;;;5074352;28;20290;-46
2023/07/17 06:24:08;;;;;;;15.80;14.37;;;19.20;99.90;;;;;;5056214;28;20175;-45
2023/07/17 06:26:36;;;;;;;17.63;15.93;;;19.30;99.90;;;;;;5072676;28;20188;-48
2023/07/17 06:29:02;;;;;;;16.10;14.80;;;19.30;99.90;;;;;;5055469;28;20229;-44
2023/07/17 06:31:28;;;;;;;15.13;14.07;;;19.30;99.90;;;;;;5072999;28;20224;-45
2023/07/17 06:33:53;;;;;;;15.97;14.47;;;19.40;99.90;;;;;;5055673;28;20180;-45
2023/07/17 06:36:19;;;;;;;11.57;10.57;;;19.50;99.90;;;;;;5074962;28;20173;-48
2023/07/17 06:38:45;;;;;;;12.40;11.33;;;19.40;99.90;;;;;;5057351;28;20181;-44
2023/07/17 06:41:10;;;;;;;13.70;12.60;;;19.50;99.90;;;;;;5075823;28;20179;-45
2023/07/17 06:43:36;;;;;;;14.10;12.80;;;19.50;99.90;;;;;;5058156;28;20173;-44
2023/07/17 06:46:02;;;;;;;15.77;14.60;;;19.40;99.90;;;;;;5057918;28;20165;-45
2023/07/17 06:48:33;;;;;;;15.23;14.07;;;19.40;99.90;;;;;;5076526;28;20490;-49
2023/07/17 06:50:59;;;;;;;16.70;15.30;;;19.30;99.90;;;;;;5058682;28;20165;-45
2023/07/17 06:53:24;;;;;;;17.80;16.30;;;19.30;99.90;;;;;;5057541;28;20169;-45
2023/07/17 06:55:57;;;;;;;18.97;17.30;;;19.40;99.90;;;;;;5074577;28;20169;-46
2023/07/17 06:58:29;;;;;;;13.40;12.07;;;19.40;99.90;;;;;;5057423;28;20390;-45
2023/07/17 07:01:00;;;;;;;14.13;12.90;;;19.50;99.90;;;;;;5057082;28;20172;-45
2023/07/17 07:03:27;;;;;;;14.20;13.00;;;19.40;99.90;;;;;;5056863;28;20188;-45
2023/07/17 07:05:57;;;;;;;14.63;13.43;;;19.40;99.90;;;;;;5075185;28;20153;-45
2023/07/17 07:08:24;;;;;;;15.33;14.00;;;19.40;99.90;;;;;;5057099;28;20215;-44
2023/07/17 07:10:51;;;;;;;13.90;12.20;;;19.40;99.90;;;;;;5056876;28;20196;-44
2023/07/17 07:13:17;;;;;;;12.60;11.60;;;19.50;99.90;;;;;;5074728;28;20173;-45
2023/07/17 07:15:43;;;;;;;12.77;11.60;;;19.50;99.90;;;;;;5057552;28;20173;-47
2023/07/17 07:18:09;;;;;;;12.43;11.33;;;19.50;99.90;;;;;;5056624;28;20183;-49
2023/07/17 07:20:34;;;;;;;12.17;10.93;;;19.50;99.90;;;;;;5055894;28;20181;-45
2023/07/17 07:23:10;;;;;;;10.53;9.57;;;19.50;99.90;;;;;;5054759;28;20188;-45
2023/07/17 07:25:36;;;;;;;10.13;9.13;;;19.60;99.90;;;;;;5055065;28;20266;-50
2023/07/17 07:28:02;;;;;;;12.13;11.00;;;19.60;99.90;;;;;;5072238;28;20182;-44
2023/07/17 07:30:28;;;;;;;12.30;11.23;;;19.70;99.90;;;;;;5071980;28;20161;-45
2023/07/17 07:32:53;;;;;;;11.77;10.63;;;19.80;99.90;;;;;;5056154;28;20275;-45
2023/07/17 07:35:19;;;;;;;9.63;8.67;;;19.70;99.90;;;;;;5057032;28;20218;-45
2023/07/17 07:37:45;;;;;;;12.83;11.50;;;19.70;99.90;;;;;;5057822;28;20177;-45
2023/07/17 07:40:12;;;;;;;11.40;10.57;;;19.70;99.90;;;;;;5059463;28;20732;-44
2023/07/17 07:42:39;;;;;;;12.00;10.93;;;19.80;99.90;;;;;;5059387;28;20211;-46
2023/07/17 07:45:05;;;;;;;19.87;6.77;;;19.90;99.90;;;;;;5060038;28;20268;-44
2023/07/17 07:47:32;;;;;;;9.10;8.00;;;19.80;99.90;;;;;;5060824;28;20184;-43
2023/07/17 07:49:57;;;;;;;10.23;9.13;;;19.80;99.90;;;;;;5060906;28;20164;-44
2023/07/17 07:52:23;;;;;;;8.67;7.30;;;19.90;99.90;;;;;;5061488;28;20238;-44
2023/07/17 07:54:48;;;;;;;10.03;7.57;;;20.00;99.90;;;;;;5060484;28;20436;-47
2023/07/17 07:57:14;;;;;;;11.50;7.10;;;20.10;99.90;;;;;;5060267;28;20175;-45
2023/07/17 07:59:40;;;;;;;8.37;6.07;;;20.10;99.90;;;;;;5060274;28;20183;-46
2023/07/17 08:02:06;;;;;;;8.37;6.37;;;20.20;99.90;;;;;;5060889;28;20205;-44
2023/07/17 08:04:31;;;;;;;10.43;6.57;;;20.30;99.90;;;;;;5060431;28;20259;-44
2023/07/17 08:06:57;;;;;;;6.43;5.93;;;20.30;99.90;;;;;;5077422;28;20526;-46
2023/07/17 08:09:23;;;;;;;5.77;5.17;;;20.40;99.90;;;;;;5060988;28;20177;-46
2023/07/17 08:11:49;;;;;;;6.00;5.23;;;20.50;99.90;;;;;;5061002;28;20180;-46
2023/07/17 08:14:16;;;;;;;5.53;4.87;;;20.60;99.90;;;;;;5059348;28;20237;-43
2023/07/17 08:16:41;;;;;;;9.63;5.13;;;20.60;99.90;;;;;;5058365;28;20212;-44
2023/07/17 08:19:07;;;;;;;13.87;4.50;;;20.60;99.90;;;;;;5057603;28;20545;-45
2023/07/17 08:21:32;;;;;;;5.70;3.57;;;20.80;99.90;;;;;;5058431;28;20686;-46
2023/07/17 08:23:58;;;;;;;5.20;3.43;;;20.70;99.90;;;;;;5058799;28;20176;-46
2023/07/17 08:26:24;;;;;;;7.67;3.93;;;20.70;99.90;;;;;;5075954;28;20715;-43
2023/07/17 08:28:50;;;;;;;7.37;3.67;;;20.70;99.90;;;;;;5057797;28;20620;-44
2023/07/17 08:31:15;;;;;;;4.97;3.60;;;20.70;99.90;;;;;;5038600;28;20217;-44
2023/07/17 08:33:41;;;;;;;4.63;3.50;;;20.70;99.90;;;;;;5055240;28;20186;-46
2023/07/17 08:36:07;;;;;;;5.80;4.00;;;20.80;99.90;;;;;;5056234;28;20173;-45
2023/07/17 08:38:33;;;;;;;5.37;4.70;;;20.80;99.90;;;;;;5054847;28;20277;-45
2023/07/17 08:41:00;;;;;;;4.80;4.40;;;20.90;99.90;;;;;;5056482;28;20165;-46
2023/07/17 08:43:27;;;;;;;6.23;4.30;;;20.90;99.90;;;;;;5054934;28;20259;-45
2023/07/17 08:45:53;;;;;;;5.10;4.63;;;20.90;99.90;;;;;;5055623;28;20166;-45
2023/07/17 08:48:20;;;;;;;5.63;3.33;;;20.90;99.90;;;;;;5055309;28;20208;-44
2023/07/17 08:50:51;;;;;;;5.50;3.20;;;20.80;99.90;;;;;;5055238;28;20204;-43
2023/07/17 08:53:19;;;;;;;4.40;3.93;;;20.90;99.90;;;;;;5054916;28;20177;-45
2023/07/17 08:55:46;;;;;;;5.13;4.63;;;21.00;99.90;;;;;;5054282;28;20177;-45
2023/07/17 08:58:12;;;;;;;3.70;2.80;;;20.80;99.90;;;;;;5054680;28;20169;-44
2023/07/17 09:00:39;;;;;;;4.60;4.20;;;20.80;99.90;;;;;;5055312;28;20178;-45
2023/07/17 09:03:05;;;;;;;5.37;4.43;;;20.90;99.90;;;;;;5054499;28;20220;-46
2023/07/17 09:05:31;;;;;;;5.37;4.97;;;20.90;99.90;;;;;;5053056;28;20185;-48
2023/07/17 09:07:56;;;;;;;5.53;5.03;;;21.00;99.90;;;;;;5053773;28;20177;-46
2023/07/17 09:10:23;;;;;;;5.63;5.03;;;21.00;99.90;;;;;;5052138;28;20200;-46
2023/07/17 09:13:00;;;;;;;5.40;4.63;;;20.90;99.90;;;;;;5035592;28;20280;-45
2023/07/17 09:15:28;;;;;;;7.90;5.50;;;20.90;99.90;;;;;;5053128;28;20583;-43
2023/07/17 09:17:53;;;;;;;6.37;5.77;;;20.90;99.90;;;;;;5052169;28;20708;-45
2023/07/17 09:20:19;;;;;;;5.53;5.03;;;21.00;99.90;;;;;;5054914;28;20260;-44
2023/07/17 09:22:46;;;;;;;9.50;4.93;;;20.90;99.90;;;;;;5054288;28;20255;-45
2023/07/17 09:25:13;;;;;;;9.27;5.70;;;21.00;99.90;;;;;;5053654;28;20166;-46
2023/07/17 09:27:50;;;;;;;6.07;5.50;;;21.10;99.90;;;;;;5053291;28;20242;-50
2023/07/17 09:30:21;;;;;;;3.93;3.57;;;21.20;99.90;;;;;;5052560;28;20688;-45
2023/07/17 09:32:47;;;;;;;3.47;3.17;;;21.20;99.90;;;;;;5054727;28;20204;-48
2023/07/17 09:35:14;;;;;;;3.00;2.80;;;21.20;99.90;;;;;;5072871;28;20179;-44
2023/07/17 09:37:42;;;;;;;4.97;3.03;;;21.30;99.90;;;;;;5055406;28;20448;-44
2023/07/17 09:40:11;;;;;;;5.57;2.87;;;21.30;99.90;;;;;;5055638;28;20187;-43
2023/07/17 09:42:39;;;;;;;8.13;3.67;;;21.40;99.90;;;;;;5056538;28;20212;-46
2023/07/17 09:45:05;;;;;;;8.43;3.30;;;21.20;99.90;;;;;;5057483;28;20720;-46
2023/07/17 09:47:34;;;;;;;5.57;3.10;;;21.20;99.90;;;;;;5075360;28;20176;-45
2023/07/17 09:50:02;;;;;;;5.43;3.57;;;21.30;99.90;;;;;;5040683;28;20183;-47
2023/07/17 09:52:35;;;;;;;6.73;4.60;;;21.30;99.90;;;;;;5073598;28;20177;-44
2023/07/17 09:55:01;;;;;;;8.27;4.23;;;21.40;99.90;;;;;;5070936;28;20169;-48
2023/07/17 09:57:38;;;;;;;4.83;3.50;;;21.50;99.90;;;;;;5052289;28;20702;-45
2023/07/17 10:00:11;;;;;;;4.90;3.57;;;21.50;99.90;;;;;;5071256;28;20172;-45
2023/07/17 10:02:40;;;;;;;5.03;3.60;;;21.50;99.90;;;;;;5053213;28;20239;-45
2023/07/17 10:05:06;;;;;;;4.63;3.40;;;21.50;99.90;;;;;;5052245;28;20274;-44
2023/07/17 10:07:36;;;;;;;5.73;3.77;;;21.50;99.90;;;;;;5070834;28;20794;-44
2023/07/17 10:10:03;;;;;;;3.13;2.70;;;21.50;99.90;;;;;;5072690;28;20229;-48
2023/07/17 10:12:30;;;;;;;3.60;2.53;;;21.50;99.90;;;;;;5074369;28;20175;-44
2023/07/17 10:14:57;;;;;;;3.37;2.33;;;21.60;99.90;;;;;;5056845;28;20184;-44
2023/07/17 10:17:27;;;;;;;8.23;2.90;;;21.70;99.90;;;;;;5055766;28;20238;-46
2023/07/17 10:19:56;;;;;;;4.97;2.90;;;21.90;99.90;;;;;;5057011;28;20176;-44
2023/07/17 10:22:38;;;;;;;6.83;3.93;;;21.90;99.90;;;;;;5056247;28;20234;-45
2023/07/17 10:25:30;;;;;;;5.80;4.77;;;21.90;99.90;;;;;;5053747;28;20366;-46
2023/07/17 10:28:00;;;;;;;4.97;4.40;;;21.90;99.90;;;;;;5048642;28;20184;-46
2023/07/17 10:30:33;;;;;;;6.63;3.97;;;21.80;99.90;;;;;;5070376;28;20187;-45
2023/07/17 10:33:19;;;;;;;6.53;4.43;;;21.80;99.90;;;;;;5053993;28;20165;-45
2023/07/17 10:35:50;;;;;;;9.47;8.67;;;21.70;99.90;;;;;;5072507;28;20179;-45
2023/07/17 10:38:22;;;;;;;6.73;6.23;;;21.70;99.90;;;;;;5055636;28;20164;-48
2023/07/17 10:40:47;;;;;;;7.60;6.90;;;21.60;99.90;;;;;;5056713;28;20461;-44
2023/07/17 10:43:14;;;;;;;7.50;6.43;;;21.60;99.90;;;;;;5057691;28;20568;-44
2023/07/17 10:45:40;;;;;;;6.07;5.50;;;21.60;99.90;;;;;;5074498;28;20181;-45
2023/07/17 10:48:06;;;;;;;8.03;7.27;;;21.70;99.90;;;;;;5056968;28;20199;-46
2023/07/17 10:50:34;;;;;;;7.13;6.53;;;21.70;99.90;;;;;;5056907;28;20277;-45
2023/07/17 10:53:05;;;;;;;7.13;6.53;;;21.80;99.90;;;;;;5057132;28;20639;-48
2023/07/17 10:55:33;;;;;;;7.90;7.20;;;21.80;99.90;;;;;;5056390;28;20165;-44
2023/07/17 10:58:01;;;;;;;8.87;5.83;;;21.80;99.90;;;;;;5056435;28;20176;-44
2023/07/17 11:00:27;;;;;;;7.97;6.43;;;21.80;99.90;;;;;;5056662;28;20622;-44
2023/07/17 11:02:56;;;;;;;6.20;5.17;;;21.90;99.90;;;;;;5056604;28;20208;-43
2023/07/17 11:05:22;;;;;;;7.70;7.10;;;22.10;99.90;;;;;;5056513;28;20204;-44
2023/07/17 11:07:48;;;;;;;6.90;6.13;;;22.00;99.90;;;;;;5054696;28;20157;-45
2023/07/17 11:10:15;;;;;;;7.73;6.70;;;22.10;99.90;;;;;;5055521;28;20179;-44
2023/07/17 11:12:42;;;;;;;7.57;6.97;;;22.10;99.90;;;;;;5056242;28;20168;-46
2023/07/17 11:15:18;;;;;;;8.57;6.93;;;22.10;99.90;;;;;;5054924;28;20161;-48
2023/07/17 11:17:45;;;;;;;9.37;8.30;;;22.30;99.90;;;;;;5056238;28;20176;-45
2023/07/17 11:20:12;;;;;;;9.03;6.17;;;22.40;99.90;;;;;;5073039;28;20528;-45
2023/07/17 11:22:42;;;;;;;8.13;7.23;;;22.10;99.90;;;;;;5054695;28;20192;-46
2023/07/17 11:25:09;;;;;;;9.43;5.93;;;22.20;99.90;;;;;;5071312;28;20835;-45
2023/07/17 11:27:35;;;;;;;6.03;5.00;;;22.20;99.90;;;;;;5053070;28;20169;-45
2023/07/17 11:30:12;;;;;;;5.50;4.50;;;22.20;99.90;;;;;;5072585;28;20164;-48
2023/07/17 11:32:39;;;;;;;6.77;3.93;;;22.40;99.90;;;;;;5035647;28;20281;-46
2023/07/17 11:35:06;;;;;;;5.77;4.70;;;22.50;99.90;;;;;;5034004;28;20161;-46
2023/07/17 11:37:38;;;;;;;7.07;5.07;;;22.30;99.90;;;;;;5051234;28;20707;-44
2023/07/17 11:40:07;;;;;;;5.60;4.10;;;22.20;99.90;;;;;;5032631;28;20188;-47
2023/07/17 11:42:57;;;;;;;5.20;3.50;;;22.10;99.90;;;;;;5050972;28;20688;-44
2023/07/17 11:45:25;;;;;;;4.37;3.40;;;22.10;99.90;;;;;;5051514;28;20166;-46
2023/07/17 11:48:11;;;;;;;5.83;3.70;;;21.90;99.90;;;;;;5018321;28;20174;-44
2023/07/17 11:50:41;;;;;;;9.00;4.67;;;21.90;99.90;;;;;;5032250;28;20234;-50
2023/07/17 11:53:11;;;;;;;6.57;4.40;;;21.80;99.90;;;;;;5033633;28;20170;-44
2023/07/17 11:55:41;;;;;;;8.77;4.90;;;21.70;99.90;;;;;;5018458;28;20200;-44
2023/07/17 11:58:30;;;;;;;6.60;5.63;;;21.60;99.90;;;;;;5035743;28;20169;-44
2023/07/17 12:00:57;;;;;;;6.77;4.77;;;21.90;99.90;;;;;;5033795;28;20240;-46
2023/07/17 12:03:24;;;;;;;8.60;4.40;;;21.90;99.90;;;;;;5017521;28;20225;-45
2023/07/17 12:05:51;;;;;;;4.60;4.20;;;21.80;99.90;;;;;;5034832;28;20479;-44
2023/07/17 12:08:17;;;;;;;4.13;3.47;;;21.70;99.90;;;;;;5053550;28;20463;-44
2023/07/17 12:10:43;;;;;;;3.37;3.10;;;21.60;99.90;;;;;;5053278;28;20153;-44
2023/07/17 12:13:09;;;;;;;3.70;2.87;;;21.40;99.90;;;;;;5052782;28;20248;-47
2023/07/17 12:15:35;;;;;;;3.47;2.87;;;21.10;99.90;;;;;;5035350;28;20169;-46
2023/07/17 12:18:01;;;;;;;3.77;2.77;;;21.00;99.90;;;;;;5036063;28;20170;-44
2023/07/17 12:20:29;;;;;;;3.90;3.47;;;20.70;99.90;;;;;;5038176;28;20169;-46
2023/07/17 12:22:57;;;;;;;7.53;6.83;;;20.70;99.90;;;;;;5056270;28;20213;-46
2023/07/17 12:25:23;;;;;;;10.83;10.27;;;20.60;99.90;;;;;;5039731;28;20173;-45
2023/07/17 12:27:51;;;;;;;9.80;9.23;;;20.50;99.90;;;;;;5039084;28;20679;-44
2023/07/17 12:30:22;;;;;;;7.37;6.97;;;20.50;99.90;;;;;;5038810;28;20215;-47
2023/07/17 12:32:47;;;;;;;12.40;11.70;;;20.90;99.90;;;;;;5058540;28;20184;-48
2023/07/17 12:35:13;;;;;;;2.50;2.33;;;21.50;99.90;;;;;;5075845;28;20149;-46
2023/07/17 12:37:39;;;;;;;3.33;2.08;;;22.00;99.90;;;;;;5074302;28;20168;-45
2023/07/17 12:40:06;;;;;;;2.17;2.05;;;22.50;99.90;;;;;;5057435;28;20179;-45
2023/07/17 12:42:31;;;;;;;3.33;2.92;;;23.00;99.90;;;;;;5073290;28;20212;-45
2023/07/17 12:44:57;;;;;;;13.00;12.25;;;23.50;99.90;;;;;;5056356;28;20200;-45